Time;durP1;ratioP1;P1;durP2;ratioP2;P2;SDS_P1;SDS_P2;PMS_P1;PMS_P2;Temp;Humidity;BMP_temperature;BMP_pressure;BME280_temperature;BME280_humidity;BME280_pressure;Samples;Min_cycle;Max_cycle;Signal;HPM_P1;HPM_P2
2022/06/17 00:00:57;;;;;;;;;11.33;11.33;;;;;26.14;33.78;101740.59;5067990;27;45377;-71
2022/06/17 00:03:31;;;;;;;;;12.00;11.67;;;;;26.01;34.23;101726.03;5065251;28;45397;-71
2022/06/17 00:05:59;;;;;;;;;11.33;9.00;;;;;26.13;33.62;101740.69;5060287;27;46137;-71
2022/06/17 00:08:32;;;;;;;;;13.00;12.33;;;;;26.12;34.00;101739.78;5060795;28;45509;-70
2022/06/17 00:10:58;;;;;;;;;10.00;10.00;;;;;25.98;33.99;101727.03;5077201;28;45526;-71
2022/06/17 00:13:24;;;;;;;;;12.33;12.33;;;;;26.02;34.29;101725.06;5065181;28;45459;-70
2022/06/17 00:15:54;;;;;;;;;11.00;10.67;;;;;25.81;34.44;101683.97;5058369;28;45425;-70
2022/06/17 00:18:24;;;;;;;;;11.33;10.00;;;;;26.05;34.29;101727.59;5052179;27;45460;-71
2022/06/17 00:20:54;;;;;;;;;12.67;10.00;;;;;26.06;34.27;101728.50;5056845;28;45844;-71
2022/06/17 00:23:22;;;;;;;;;12.67;11.67;;;;;25.84;34.10;101685.63;5068556;28;45401;-70
2022/06/17 00:25:49;;;;;;;;;10.33;10.00;;;;;26.04;34.29;101716.94;5060171;28;45650;-71
2022/06/17 00:28:19;;;;;;;;;9.67;9.00;;;;;25.99;34.42;101706.44;5070623;28;45347;-71
2022/06/17 00:30:48;;;;;;;;;12.67;12.67;;;;;25.93;34.54;101722.81;5066279;28;46016;-71
2022/06/17 00:33:20;;;;;;;;;11.00;11.00;;;;;25.87;34.79;101717.75;5074512;27;46051;-72
2022/06/17 00:35:53;;;;;;;;;13.00;11.00;;;;;25.78;35.08;101722.56;5074901;27;46505;-72
2022/06/17 00:38:28;;;;;;;;;11.67;9.67;;;;;25.46;35.20;101686.50;5073118;28;45552;-72
2022/06/17 00:40:56;;;;;;;;;14.00;10.00;;;;;25.67;35.34;101726.66;5074800;28;45593;-70
2022/06/17 00:43:33;;;;;;;;;14.00;12.33;;;;;25.68;35.39;101726.59;5073633;28;46724;-72
2022/06/17 00:46:17;;;;;;;;;11.00;11.00;;;;;25.67;35.65;101735.56;5070581;28;45473;-71
2022/06/17 00:49:22;;;;;;;;;12.67;12.00;;;;;25.55;35.31;101725.41;5071345;28;45828;-71
2022/06/17 00:51:58;;;;;;;;;12.00;12.00;;;;;25.46;35.36;101725.81;5077235;28;45337;-72
2022/06/17 00:54:34;;;;;;;;;13.67;13.00;;;;;25.26;36.58;101724.03;5079907;28;45423;-70
2022/06/17 00:57:00;;;;;;;;;15.00;12.33;;;;;25.11;36.40;101717.50;5078357;27;45483;-71
2022/06/17 00:59:26;;;;;;;;;12.33;12.33;;;;;25.11;36.93;101717.50;5078502;27;45579;-72
2022/06/17 01:01:59;;;;;;;;;12.33;11.00;;;;;25.09;36.23;101703.31;5077613;27;45339;-72
2022/06/17 01:04:32;;;;;;;;;15.67;12.00;;;;;25.11;36.22;101702.28;5072914;27;46309;-71
2022/06/17 01:07:24;;;;;;;;;12.67;11.00;;;;;25.25;36.52;101733.00;5076945;27;45364;-72
2022/06/17 01:09:57;;;;;;;;;14.00;14.00;;;;;25.10;36.72;101705.88;5076199;28;45321;-72
2022/06/17 01:12:27;;;;;;;;;12.00;12.00;;;;;25.13;36.59;101727.22;5077967;28;45607;-72
2022/06/17 01:14:54;;;;;;;;;10.33;10.33;;;;;25.08;36.91;101725.66;5077421;27;45400;-71
2022/06/17 01:17:21;;;;;;;;;14.67;12.00;;;;;25.08;37.14;101726.56;5072525;27;45475;-71
2022/06/17 01:19:56;;;;;;;;;14.33;12.33;;;;;25.10;36.95;101734.50;5070969;28;45435;-71
2022/06/17 01:22:27;;;;;;;;;14.33;13.33;;;;;25.06;37.47;101730.25;5062715;28;45394;-73
2022/06/17 01:25:08;;;;;;;;;13.67;12.00;;;;;25.00;37.11;101733.16;5072632;28;47077;-72
2022/06/17 01:27:40;;;;;;;;;10.67;10.67;;;;;24.69;37.76;101688.91;5063311;28;45538;-72
2022/06/17 01:30:10;;;;;;;;;11.00;10.33;;;;;25.04;37.46;101732.97;5077558;28;45388;-72
2022/06/17 01:32:51;;;;;;;;;12.00;12.00;;;;;24.95;37.51;101723.50;5077496;28;45394;-71
2022/06/17 01:35:20;;;;;;;;;10.00;10.00;;;;;24.97;37.90;101735.03;5072217;27;45892;-72
2022/06/17 01:37:46;;;;;;;;;10.00;10.00;;;;;25.07;37.62;101745.38;5062939;27;45486;-71
2022/06/17 01:40:13;;;;;;;;;13.33;12.00;;;;;25.09;38.13;101749.72;5077477;27;45317;-72
2022/06/17 01:42:39;;;;;;;;;12.67;12.00;;;;;25.12;37.88;101754.94;5077303;28;45384;-72
2022/06/17 01:45:07;;;;;;;;;13.67;10.67;;;;;25.06;38.03;101744.50;5076684;28;45448;-72
2022/06/17 01:47:36;;;;;;;;;11.00;11.00;;;;;25.10;37.96;101750.59;5076628;28;45312;-71
2022/06/17 01:50:09;;;;;;;;;11.67;10.33;;;;;25.10;37.94;101753.28;5077287;28;45435;-73
2022/06/17 01:52:52;;;;;;;;;10.00;9.33;;;;;24.88;37.81;101727.38;5077219;28;45447;-74
2022/06/17 01:55:28;;;;;;;;;13.00;11.33;;;;;25.06;37.44;101746.31;5076093;27;45751;-72
2022/06/17 01:57:58;;;;;;;;;12.33;10.33;;;;;25.10;38.17;101761.31;5076753;27;45452;-73
2022/06/17 02:00:26;;;;;;;;;9.00;9.00;;;;;24.93;38.02;101743.28;5063637;28;45429;-73
2022/06/17 02:03:07;;;;;;;;;13.33;11.67;;;;;24.98;38.14;101755.53;5076901;28;45487;-73
2022/06/17 02:05:33;;;;;;;;;12.00;11.33;;;;;25.00;37.75;101763.50;5076604;27;45951;-72
2022/06/17 02:08:01;;;;;;;;;12.33;12.00;;;;;24.98;37.94;101766.25;5076960;28;45484;-74
2022/06/17 02:10:37;;;;;;;;;11.33;11.00;;;;;24.87;38.49;101760.50;5076910;27;45406;-73
2022/06/17 02:13:06;;;;;;;;;13.00;11.67;;;;;24.89;38.44;101765.75;5077130;28;45444;-72
2022/06/17 02:15:32;;;;;;;;;7.00;7.00;;;;;24.87;38.24;101765.00;5079265;27;45443;-71
2022/06/17 02:17:59;;;;;;;;;11.00;11.00;;;;;24.86;38.17;101779.31;5075484;27;45346;-72
2022/06/17 02:20:25;;;;;;;;;10.67;10.67;;;;;24.94;38.58;101791.47;5067302;28;45471;-74
2022/06/17 02:22:55;;;;;;;;;10.00;10.00;;;;;24.91;38.56;101786.19;5069125;28;45429;-73
2022/06/17 02:25:28;;;;;;;;;12.00;11.33;;;;;24.89;38.22;101781.84;5078815;27;47690;-73
2022/06/17 02:27:56;;;;;;;;;9.33;9.33;;;;;24.86;38.56;101790.03;5080594;28;45224;-73
2022/06/17 02:30:24;;;;;;;;;11.00;10.00;;;;;24.81;38.16;101776.81;5080429;28;45361;-72
2022/06/17 02:32:51;;;;;;;;;12.67;12.67;;;;;24.88;38.48;101794.38;5076305;27;45434;-72
2022/06/17 02:35:35;;;;;;;;;13.00;10.00;;;;;24.89;37.94;101796.13;5074733;28;45467;-71
2022/06/17 02:38:01;;;;;;;;;11.00;11.00;;;;;24.65;38.20;101756.94;5066751;27;45402;-73
2022/06/17 02:40:35;;;;;;;;;11.67;11.00;;;;;24.85;38.37;101797.19;5080122;27;45214;-72
2022/06/17 02:43:04;;;;;;;;;11.00;11.00;;;;;24.78;38.15;101784.97;5075301;27;45444;-73
2022/06/17 02:45:33;;;;;;;;;12.67;12.00;;;;;24.64;37.86;101760.56;5072444;27;47305;-72
2022/06/17 02:48:01;;;;;;;;;13.67;12.33;;;;;24.59;38.05;101773.28;5066078;28;45479;-73
2022/06/17 02:50:29;;;;;;;;;14.33;12.67;;;;;24.52;38.33;101778.88;5079911;27;45463;-73
2022/06/17 02:52:56;;;;;;;;;13.00;10.00;;;;;24.25;38.60;101746.00;5079793;27;45320;-73
2022/06/17 02:55:39;;;;;;;;;14.00;12.00;;;;;24.30;38.42;101762.75;5079369;27;45460;-73
2022/06/17 02:58:23;;;;;;;;;14.00;13.00;;;;;24.14;38.61;101740.19;5079379;27;45265;-74
2022/06/17 03:00:51;;;;;;;;;11.33;10.33;;;;;23.96;38.79;101709.66;5079471;27;45412;-74
2022/06/17 03:03:20;;;;;;;;;12.33;10.33;;;;;23.57;38.83;101658.53;5066341;27;45338;-72
2022/06/17 03:05:46;;;;;;;;;12.00;11.00;;;;;23.67;38.69;101687.53;5074914;27;47857;-74
2022/06/17 03:08:21;;;;;;;;;13.00;11.00;;;;;24.30;38.99;101778.81;5078175;27;45366;-73
2022/06/17 03:10:49;;;;;;;;;10.67;10.67;;;;;24.25;38.80;101778.13;5080113;27;45337;-73
2022/06/17 03:13:23;;;;;;;;;9.00;9.00;;;;;24.33;38.43;101801.91;5079955;27;45285;-74
2022/06/17 03:15:54;;;;;;;;;12.00;12.00;;;;;23.94;39.33;101742.75;5079556;27;46258;-73
2022/06/17 03:18:21;;;;;;;;;12.33;10.67;;;;;24.27;39.10;101788.75;5079468;27;45587;-73
2022/06/17 03:20:51;;;;;;;;;10.00;10.00;;;;;24.32;39.55;101786.75;5089059;27;45336;-73
2022/06/17 03:23:22;;;;;;;;;13.33;10.33;;;;;24.32;39.30;101776.06;5072867;28;45393;-73
2022/06/17 03:26:03;;;;;;;;;12.67;11.33;;;;;24.26;39.11;101760.25;5078513;27;46376;-73
2022/06/17 03:28:38;;;;;;;;;12.00;12.00;;;;;23.90;39.31;101702.75;5079263;27;45493;-73
2022/06/17 03:31:16;;;;;;;;;13.67;12.00;;;;;23.42;39.42;101625.19;5074706;27;45443;-72
2022/06/17 03:33:54;;;;;;;;;10.33;10.00;;;;;24.25;39.39;101769.19;5074308;28;45566;-73
2022/06/17 03:36:31;;;;;;;;;10.00;9.00;;;;;23.59;39.11;101652.19;5079749;28;45350;-73
2022/06/17 03:39:00;;;;;;;;;11.00;11.00;;;;;23.58;39.65;101661.13;5079651;27;45431;-73
2022/06/17 03:41:47;;;;;;;;;11.67;11.67;;;;;23.69;39.76;101676.78;5079263;27;45350;-73
2022/06/17 03:44:17;;;;;;;;;13.33;12.00;;;;;23.87;39.80;101710.91;5077576;27;45633;-73
2022/06/17 03:46:52;;;;;;;;;13.00;12.00;;;;;23.99;40.09;101720.25;5077438;27;46431;-73
2022/06/17 03:49:24;;;;;;;;;13.00;11.33;;;;;23.87;40.43;101696.63;5077740;27;45740;-74
2022/06/17 03:51:57;;;;;;;;;12.00;12.00;;;;;23.90;40.38;101716.13;5079262;27;45236;-74
2022/06/17 03:54:22;;;;;;;;;13.00;13.00;;;;;24.10;40.20;101782.25;5079124;27;45471;-73
2022/06/17 03:56:51;;;;;;;;;12.67;12.67;;;;;24.18;39.88;101778.41;5073908;27;46884;-73
2022/06/17 03:59:21;;;;;;;;;9.00;9.00;;;;;23.64;39.57;101701.03;5074270;27;45539;-73
2022/06/17 04:01:54;;;;;;;;;12.33;11.00;;;;;24.05;39.36;101752.13;5079418;28;45515;-73
2022/06/17 04:04:27;;;;;;;;;14.67;13.00;;;;;24.20;39.63;101797.94;5079087;27;45381;-72
2022/06/17 04:06:55;;;;;;;;;12.33;11.67;;;;;23.88;39.47;101750.09;5078831;27;46170;-73
2022/06/17 04:09:26;;;;;;;;;12.33;12.33;;;;;24.31;39.12;101817.16;5074165;27;45749;-71
2022/06/17 04:12:24;;;;;;;;;13.33;13.33;;;;;24.13;39.40;101774.13;5078717;27;45432;-72
2022/06/17 04:15:13;;;;;;;;;10.00;9.00;;;;;24.19;39.42;101774.81;5059470;28;45511;-71
2022/06/17 04:17:42;;;;;;;;;11.00;11.00;;;;;23.99;39.65;101756.81;5070783;27;45619;-73
2022/06/17 04:20:26;;;;;;;;;11.67;11.33;;;;;24.10;39.25;101795.63;5077160;27;45456;-73
2022/06/17 04:22:56;;;;;;;;;10.00;10.00;;;;;23.38;39.16;101669.03;5068087;28;45256;-72
2022/06/17 04:25:32;;;;;;;;;10.33;10.00;;;;;23.96;39.21;101784.56;5078919;27;45389;-73
2022/06/17 04:28:03;;;;;;;;;11.33;10.67;;;;;23.79;39.55;101769.16;5078265;27;45555;-73
2022/06/17 04:30:33;;;;;;;;;10.33;10.33;;;;;23.80;39.61;101778.94;5078319;27;45254;-74
2022/06/17 04:33:05;;;;;;;;;13.00;12.00;;;;;23.88;39.46;101794.69;5078570;27;45420;-73
2022/06/17 04:35:30;;;;;;;;;13.67;12.00;;;;;23.89;39.46;101796.44;5078703;27;45574;-74
2022/06/17 04:37:56;;;;;;;;;14.00;12.33;;;;;23.82;39.65;101790.41;5086114;27;45218;-73
2022/06/17 04:40:30;;;;;;;;;10.67;9.00;;;;;23.66;40.01;101770.50;5086498;27;45618;-73
2022/06/17 04:42:58;;;;;;;;;11.00;11.00;;;;;23.82;39.47;101793.09;5078225;27;45337;-73
2022/06/17 04:45:28;;;;;;;;;14.00;12.00;;;;;23.51;39.96;101761.22;5078661;27;45366;-72
2022/06/17 04:47:55;;;;;;;;;14.00;12.00;;;;;23.76;39.69;101793.34;5078339;27;46281;-72
2022/06/17 04:50:25;;;;;;;;;9.33;9.33;;;;;23.37;39.78;101734.09;5078650;27;45392;-73
2022/06/17 04:52:54;;;;;;;;;10.67;10.67;;;;;23.40;39.47;101721.50;5078321;28;45299;-72
2022/06/17 04:55:28;;;;;;;;;11.00;9.00;;;;;23.72;39.68;101775.63;5078400;27;45456;-74
2022/06/17 04:57:55;;;;;;;;;14.33;12.00;;;;;23.94;39.46;101812.31;5077341;27;45441;-72
2022/06/17 05:00:24;;;;;;;;;14.00;13.00;;;;;23.69;39.68;101770.38;5093605;27;45464;-73
2022/06/17 05:02:50;;;;;;;;;11.33;11.00;;;;;23.43;39.60;101720.53;5075737;27;46143;-74
2022/06/17 05:05:31;;;;;;;;;10.67;9.00;;;;;23.33;39.49;101687.03;5077784;27;45364;-73
2022/06/17 05:07:57;;;;;;;;;11.00;9.67;;;;;23.98;39.71;101795.22;5075368;27;47031;-73
2022/06/17 05:10:32;;;;;;;;;14.67;12.33;;;;;24.13;39.37;101797.31;5073068;27;45492;-74
2022/06/17 05:13:00;;;;;;;;;12.67;12.67;;;;;24.21;39.49;101797.91;5072265;27;45384;-74
2022/06/17 05:15:26;;;;;;;;;12.33;11.00;;;;;23.63;39.51;101707.31;5077467;27;45383;-73
2022/06/17 05:17:54;;;;;;;;;11.33;11.00;;;;;24.01;39.47;101793.28;5077223;27;46005;-74
2022/06/17 05:20:23;;;;;;;;;14.67;11.67;;;;;23.94;39.73;101804.28;5074646;28;45491;-73
2022/06/17 05:23:00;;;;;;;;;12.50;11.00;;;;;23.77;40.04;101780.84;5066797;27;45572;-74
2022/06/17 05:25:29;;;;;;;;;12.67;11.00;;;;;23.81;40.03;101777.13;5077820;28;45980;-74
2022/06/17 05:27:55;;;;;;;;;13.33;10.33;;;;;23.83;40.34;101788.66;5077613;28;45468;-76
2022/06/17 05:30:22;;;;;;;;;14.67;12.67;;;;;23.46;40.34;101720.41;5077550;28;45485;-75
2022/06/17 05:32:51;;;;;;;;;14.67;13.33;;;;;23.65;40.46;101747.34;5079473;27;45439;-72
2022/06/17 05:35:18;;;;;;;;;15.33;12.33;;;;;23.69;40.25;101739.16;5081230;27;45439;-73
2022/06/17 05:37:44;;;;;;;;;12.33;12.33;;;;;23.71;40.46;101737.31;5079848;27;46076;-76
2022/06/17 05:40:10;;;;;;;;;14.00;14.00;;;;;24.04;39.97;101781.63;5080156;28;45397;-76
2022/06/17 05:42:36;;;;;;;;;10.00;10.00;;;;;23.67;40.36;101718.75;5077641;27;45580;-76
2022/06/17 05:45:03;;;;;;;;;17.67;16.67;;;;;23.86;39.71;101724.31;5080361;28;45483;-76
2022/06/17 05:47:29;;;;;;;;;15.00;13.00;;;;;24.01;39.79;101766.53;5084099;27;45509;-77
2022/06/17 05:49:54;;;;;;;;;19.33;17.00;;;;;24.04;39.56;101773.59;5089897;28;45248;-77
2022/06/17 05:52:20;;;;;;;;;16.67;13.00;;;;;23.97;39.60;101772.94;5090115;28;45185;-79
2022/06/17 05:55:05;;;;;;;;;14.67;14.33;;;;;23.80;39.79;101751.28;5087287;27;44943;-81
2022/06/17 05:57:38;;;;;;;;;15.00;12.33;;;;;23.76;40.09;101749.69;5079934;28;45280;-71
2022/06/17 06:00:06;;;;;;;;;12.67;12.00;;;;;24.08;39.72;101783.22;5079094;27;45309;-71
2022/06/17 06:02:31;;;;;;;;;14.00;13.33;;;;;24.17;39.72;101774.00;5077625;27;45313;-73
2022/06/17 06:04:57;;;;;;;;;13.33;13.33;;;;;23.47;39.44;101674.03;5077856;27;45220;-71
2022/06/17 06:07:22;;;;;;;;;11.00;11.00;;;;;23.90;39.82;101750.91;5077181;27;45844;-71
2022/06/17 06:09:48;;;;;;;;;12.00;11.33;;;;;24.37;39.53;101792.84;5076969;28;45252;-73
2022/06/17 06:12:14;;;;;;;;;12.33;11.33;;;;;24.45;39.47;101779.16;5076880;27;45337;-72
2022/06/17 06:14:39;;;;;;;;;13.67;11.00;;;;;24.50;39.17;101779.88;5077847;27;45226;-70
2022/06/17 06:17:05;;;;;;;;;13.67;13.67;;;;;24.40;39.02;101767.75;5077044;27;45634;-74
2022/06/17 06:19:31;;;;;;;;;16.00;13.67;;;;;24.49;39.45;101783.50;5076993;28;45442;-70
2022/06/17 06:21:57;;;;;;;;;16.33;12.67;;;;;24.54;39.49;101770.78;5062054;28;45523;-72
2022/06/17 06:24:23;;;;;;;;;13.00;11.33;;;;;24.69;39.42;101770.16;5062895;28;45457;-71
2022/06/17 06:26:49;;;;;;;;;12.00;12.00;;;;;24.47;38.71;101705.00;5069375;27;46582;-71
2022/06/17 06:29:14;;;;;;;;;12.00;12.00;;;;;24.67;38.74;101755.06;5076931;28;45349;-72
2022/06/17 06:31:40;;;;;;;;;14.00;12.67;;;;;24.58;38.95;101756.31;5076957;27;45382;-73
2022/06/17 06:34:06;;;;;;;;;12.33;12.33;;;;;24.52;38.93;101757.44;5076752;27;45456;-74
2022/06/17 06:36:32;;;;;;;;;14.00;13.33;;;;;24.63;39.03;101742.72;5076400;28;46291;-71
2022/06/17 06:38:58;;;;;;;;;13.00;12.67;;;;;24.71;38.67;101746.00;5077155;28;45487;-73
2022/06/17 06:41:23;;;;;;;;;13.00;13.00;;;;;24.51;38.70;101710.19;5077414;27;45472;-72
2022/06/17 06:43:50;;;;;;;;;14.00;12.33;;;;;24.75;38.93;101751.16;5077361;27;45421;-72
2022/06/17 06:46:18;;;;;;;;;13.00;11.33;;;;;24.72;38.73;101745.03;5078043;28;46300;-72
2022/06/17 06:48:45;;;;;;;;;15.67;15.00;;;;;24.75;38.91;101753.84;5078014;28;45461;-72
2022/06/17 06:51:11;;;;;;;;;15.33;13.00;;;;;24.78;38.73;101758.19;5079033;28;45488;-74
2022/06/17 06:53:36;;;;;;;;;15.00;14.33;;;;;24.89;38.58;101760.41;5077257;27;45447;-74
2022/06/17 06:56:05;;;;;;;;;16.33;13.33;;;;;24.84;38.84;101716.88;5067086;27;45440;-72
2022/06/17 06:58:31;;;;;;;;;14.00;14.00;;;;;25.25;38.87;101749.97;5064099;28;45744;-72
2022/06/17 07:00:57;;;;;;;;;13.00;12.33;;;;;25.39;38.14;101750.25;5078390;27;45357;-75
2022/06/17 07:03:28;;;;;;;;;16.33;13.00;;;;;25.47;38.28;101746.34;5072952;27;45402;-72
2022/06/17 07:06:01;;;;;;;;;11.33;11.33;;;;;25.34;37.52;101709.38;5063155;27;46337;-71
2022/06/17 07:08:31;;;;;;;;;14.33;12.67;;;;;25.45;37.79;101733.00;5059261;28;45556;-72
2022/06/17 07:11:10;;;;;;;;;13.00;12.67;;;;;25.70;37.88;101759.59;5064409;28;45551;-71
2022/06/17 07:13:35;;;;;;;;;14.67;13.33;;;;;25.93;37.55;101763.94;5064116;28;45489;-72
2022/06/17 07:16:04;;;;;;;;;13.00;13.00;;;;;25.68;37.63;101704.28;5059432;28;46272;-78
2022/06/17 07:18:32;;;;;;;;;15.33;11.67;;;;;26.13;37.40;101760.34;5059377;28;45535;-71
2022/06/17 07:21:02;;;;;;;;;15.67;14.00;;;;;26.21;36.50;101770.72;5059144;28;45339;-71
2022/06/17 07:23:34;;;;;;;;;13.33;13.33;;;;;26.01;36.90;101723.34;5073890;27;45374;-76
2022/06/17 07:26:16;;;;;;;;;13.67;12.00;;;;;26.14;36.66;101735.22;5080098;27;45420;-71
2022/06/17 07:28:43;;;;;;;;;14.67;11.33;;;;;26.55;36.73;101778.06;5074010;28;45510;-74
2022/06/17 07:31:09;;;;;;;;;12.67;12.67;;;;;26.42;36.09;101734.75;5058663;28;45472;-73
2022/06/17 07:33:35;;;;;;;;;15.00;15.00;;;;;26.68;36.41;101764.88;5064591;28;45900;-72
2022/06/17 07:36:02;;;;;;;;;13.33;13.33;;;;;26.75;36.68;101763.63;5065291;28;45441;-74
2022/06/17 07:41:19;;;;;;;;;13.67;13.00;;;;;26.96;35.85;101761.69;5063172;28;45457;-73
2022/06/17 07:43:44;;;;;;;;;13.33;12.33;;;;;27.04;35.25;101772.91;5066208;27;45339;-72
2022/06/17 07:46:10;;;;;;;;;15.00;15.00;;;;;27.04;35.35;101767.53;5058575;28;45975;-73
2022/06/17 07:48:41;;;;;;;;;16.33;14.33;;;;;27.09;35.09;101783.44;5053440;28;45503;-76
2022/06/17 07:51:19;;;;;;;;;16.00;15.00;;;;;26.96;34.99;101767.06;5083478;27;45594;-72
2022/06/17 07:53:47;;;;;;;;;13.00;13.00;;;;;26.88;34.86;101745.06;5069376;28;45424;-75
2022/06/17 07:56:15;;;;;;;;;0.67;0.00;;;;;27.38;34.93;101808.00;5068772;28;46216;-74
2022/06/17 07:58:41;;;;;;;;;16.33;15.00;;;;;27.30;34.57;101781.50;5060466;28;45617;-72
2022/06/17 08:01:06;;;;;;;;;16.00;14.00;;;;;27.55;34.39;101808.00;5058000;28;45459;-73
2022/06/17 08:03:34;;;;;;;;;12.00;11.67;;;;;27.66;34.20;101807.44;5058724;28;45504;-74
2022/06/17 08:06:02;;;;;;;;;13.67;13.33;;;;;27.40;33.62;101745.09;5058502;28;45398;-72
2022/06/17 08:08:29;;;;;;;;;15.33;12.00;;;;;27.87;33.60;101802.75;5058359;28;45333;-73
2022/06/17 08:11:00;;;;;;;;;12.00;11.67;;;;;27.87;33.52;101790.16;5058303;28;45366;-72
2022/06/17 08:13:26;;;;;;;;;12.33;12.33;;;;;27.96;33.31;101788.81;5058449;28;45468;-73
2022/06/17 08:15:55;;;;;;;;;10.67;10.33;;;;;28.18;33.24;101811.88;5058376;28;46259;-72
2022/06/17 08:18:22;;;;;;;;;11.00;11.00;;;;;28.30;33.13;101813.88;5058296;28;45590;-72
2022/06/17 08:20:48;;;;;;;;;12.00;12.00;;;;;28.40;32.95;101819.63;5060554;28;45485;-71
2022/06/17 08:23:19;;;;;;;;;12.67;12.67;;;;;28.41;32.95;101803.38;5075252;28;45281;-71
2022/06/17 08:25:45;;;;;;;;;11.67;11.00;;;;;28.58;32.30;101818.63;5076328;27;45615;-72
2022/06/17 08:28:14;;;;;;;;;10.25;9.50;;;;;28.64;32.33;101802.09;5070359;27;45513;-71
2022/06/17 08:30:47;;;;;;;;;10.67;10.67;;;;;28.71;32.54;101792.72;5079783;27;45373;-71
2022/06/17 08:33:13;;;;;;;;;12.00;12.00;;;;;28.71;32.44;101802.59;5080633;27;45395;-73
2022/06/17 08:35:42;;;;;;;;;12.67;12.67;;;;;28.65;31.97;101798.44;5079526;28;45354;-73
2022/06/17 08:38:19;;;;;;;;;13.33;12.00;;;;;28.62;31.43;101768.13;5079727;27;45232;-79
2022/06/17 08:40:53;;;;;;;;;10.00;10.00;;;;;28.83;31.14;101795.63;5077178;27;45323;-75
2022/06/17 08:43:24;;;;;;;;;9.75;9.75;;;;;28.87;30.70;101794.50;5065196;28;45271;-75
2022/06/17 08:46:01;;;;;;;;;10.25;10.00;;;;;28.71;31.04;101760.34;5075760;27;46412;-72
2022/06/17 08:49:15;;;;;;;;;9.50;9.50;;;;;28.89;30.93;101795.28;5078344;27;45300;-73
2022/06/17 08:51:50;;;;;;;;;12.00;11.00;;;;;28.98;31.04;101793.88;5067851;28;45461;-77
2022/06/17 08:54:47;;;;;;;;;12.67;11.67;;;;;29.00;30.73;101782.03;5082667;27;45281;-75
2022/06/17 08:57:17;;;;;;;;;9.33;9.33;;;;;29.03;29.92;101787.25;5081453;28;45596;-75
2022/06/17 08:59:58;;;;;;;;;11.00;10.50;;;;;29.04;29.50;101786.28;5081494;28;45396;-76
2022/06/17 09:02:27;;;;;;;;;12.25;12.25;;;;;29.06;29.90;101781.66;5080346;27;45465;-75
2022/06/17 09:05:24;;;;;;;;;11.33;11.33;;;;;29.11;29.99;101782.28;5081562;27;44975;-76
2022/06/17 09:08:06;;;;;;;;;9.00;9.00;;;;;29.24;29.43;101777.03;5079198;27;45318;-75
2022/06/17 09:10:46;;;;;;;;;12.00;12.00;;;;;29.31;29.99;101777.53;5080390;27;45428;-78
2022/06/17 09:13:30;;;;;;;;;10.00;10.00;;;;;29.42;29.96;101777.75;5078842;27;45279;-74
2022/06/17 09:16:15;;;;;;;;;12.50;11.75;;;;;29.53;30.15;101775.25;5078612;27;45255;-73
2022/06/17 09:18:48;;;;;;;;;12.50;11.75;;;;;29.43;29.88;101766.00;5064962;28;45228;-77
2022/06/17 09:21:24;;;;;;;;;9.50;9.00;;;;;29.46;29.10;101757.69;5067989;27;45380;-75
2022/06/17 09:23:52;;;;;;;;;9.50;9.50;;;;;28.82;28.88;101645.63;5070648;28;45493;-76
2022/06/17 09:26:33;;;;;;;;;8.50;8.50;;;;;29.69;28.46;101775.22;5075552;28;45214;-80
2022/06/17 09:29:23;;;;;;;;;9.50;8.50;;;;;29.72;28.30;101772.31;5078796;27;45510;-77
2022/06/17 09:33:23;;;;;;;;;11.00;10.00;;;;;29.41;27.55;101696.91;5153531;27;45282;-77
2022/06/17 09:35:49;;;;;;;;;10.75;10.00;;;;;29.80;28.27;101761.91;5151507;27;45321;-75
2022/06/17 09:38:28;;;;;;;;;15.50;13.50;;;;;29.42;28.46;101696.78;5129292;27;45449;-75
2022/06/17 09:40:59;;;;;;;;;11.25;10.00;;;;;29.87;27.81;101773.19;5131923;27;45628;-74
2022/06/17 09:43:27;;;;;;;;;8.00;8.00;;;;;29.82;28.05;101766.34;5116834;27;46102;-74
2022/06/17 09:45:59;;;;;;;;;8.25;8.25;;;;;29.87;27.89;101764.22;5148530;27;45693;-72
2022/06/17 09:48:42;;;;;;;;;12.50;10.75;;;;;29.91;28.05;101763.94;5134035;27;45408;-74
2022/06/17 09:51:13;;;;;;;;;11.00;11.00;;;;;29.89;28.26;101760.44;5133630;27;45436;-74
2022/06/17 09:53:52;;;;;;;;;8.25;8.25;;;;;29.61;28.37;101710.00;5132690;27;46054;-73
2022/06/17 09:56:38;;;;;;;;;11.00;10.25;;;;;30.02;28.09;101763.25;5131635;27;45454;-71
2022/06/17 09:59:17;;;;;;;;;11.00;11.00;;;;;30.09;27.32;101771.81;5095473;27;45675;-73
2022/06/17 10:01:43;;;;;;;;;8.25;8.25;;;;;29.91;26.85;101739.63;5126811;27;45348;-73
2022/06/17 10:04:11;;;;;;;;;10.00;10.00;;;;;29.87;26.17;101737.22;5133521;27;46165;-77
2022/06/17 10:07:10;;;;;;;;;9.50;9.50;;;;;29.98;27.12;101732.84;5133433;27;45438;-74
2022/06/17 10:09:48;;;;;;;;;10.25;10.25;;;;;29.92;26.87;101713.47;5130052;27;45695;-71
2022/06/17 10:12:17;;;;;;;;;11.00;10.25;;;;;30.25;27.00;101756.34;5130138;27;45304;-71
2022/06/17 10:15:28;;;;;;;;;9.75;9.50;;;;;30.21;26.41;101765.63;5132236;27;45377;-73
2022/06/17 10:18:32;;;;;;;;;10.75;10.75;;;;;30.26;27.06;101754.56;5129017;27;45632;-74
2022/06/17 10:21:19;;;;;;;;;11.50;10.25;;;;;30.07;26.44;101717.03;5124335;27;45327;-72
2022/06/17 10:24:06;;;;;;;;;10.00;9.00;;;;;30.23;26.02;101747.47;5130449;27;45592;-72
2022/06/17 10:26:43;;;;;;;;;9.75;9.00;;;;;30.28;26.30;101753.50;5131491;27;46259;-71
2022/06/17 10:29:57;;;;;;;;;15.50;10.00;;;;;30.37;25.80;101750.19;5123486;27;45440;-71
2022/06/17 10:32:26;;;;;;;;;8.25;8.25;;;;;30.30;24.33;101756.97;5130755;27;45669;-67
2022/06/17 10:34:58;;;;;;;;;6.00;6.00;;;;;30.11;24.02;101719.44;5130285;27;45818;-69
2022/06/17 10:37:26;;;;;;;;;7.00;5.00;;;;;30.12;23.41;101729.28;5130131;27;45567;-68
2022/06/17 10:39:53;;;;;;;;;4.80;4.00;;;;;30.29;23.17;101747.13;5132079;27;45292;-70
2022/06/17 10:42:20;;;;;;;;;4.00;4.00;;;;;30.33;23.03;101735.16;5129916;27;45502;-70
2022/06/17 10:44:55;;;;;;;;;6.00;6.00;;;;;30.46;24.37;101742.44;5117381;27;45447;-69
2022/06/17 10:47:50;;;;;;;;;8.00;7.00;;;;;30.52;24.90;101748.31;5108335;27;46105;-70
2022/06/17 10:50:21;;;;;;;;;11.25;11.25;;;;;30.54;25.84;101738.28;5113762;27;45368;-71
2022/06/17 10:53:03;;;;;;;;;8.75;7.75;;;;;30.55;23.90;101742.69;5096618;27;45621;-76
2022/06/17 10:55:41;;;;;;;;;6.00;6.00;;;;;30.49;23.80;101732.28;5048167;28;46152;-75
2022/06/17 10:58:18;;;;;;;;;8.25;7.50;;;;;30.58;23.70;101747.03;5056254;28;46240;-69
2022/06/17 11:01:16;;;;;;;;;6.25;6.25;;;;;30.64;23.67;101752.91;5050198;27;45596;-70
2022/06/17 11:03:48;;;;;;;;;7.00;6.00;;;;;30.75;24.28;101754.00;5061241;27;46145;-71
2022/06/17 11:06:20;;;;;;;;;11.00;11.00;;;;;30.71;24.71;101723.63;5052436;28;45500;-68
2022/06/17 11:08:49;;;;;;;;;9.75;9.75;;;;;30.96;24.96;101754.44;5055861;28;45783;-68
2022/06/17 11:14:04;;;;;;;;;9.00;7.75;;;;;31.08;24.71;101750.00;5053997;28;45563;-71
2022/06/17 11:16:41;;;;;;;;;9.25;8.25;;;;;30.90;24.67;101719.69;5053880;28;45484;-69
2022/06/17 11:19:13;;;;;;;;;8.50;8.50;;;;;31.11;25.08;101750.69;5053855;28;46370;-70
2022/06/17 11:21:49;;;;;;;;;10.00;9.20;;;;;30.50;24.30;101644.81;5053988;28;45520;-69
2022/06/17 11:24:27;;;;;;;;;10.25;10.25;;;;;31.08;24.93;101723.81;5051880;28;45377;-74
2022/06/17 11:27:12;;;;;;;;;8.00;8.00;;;;;31.33;25.26;101752.75;5069804;27;45536;-70
2022/06/17 11:29:44;;;;;;;;;11.00;10.00;;;;;31.32;25.31;101728.50;5046097;28;46540;-69
2022/06/17 11:32:18;;;;;;;;;12.50;11.25;;;;;31.50;25.69;101742.63;5052870;27;45562;-68
2022/06/17 11:34:51;;;;;;;;;9.00;8.00;;;;;31.08;25.43;101682.38;5053557;27;46433;-70
2022/06/17 11:37:35;;;;;;;;;8.00;8.00;;;;;31.56;24.66;101740.34;5053326;28;45337;-69
2022/06/17 11:40:07;;;;;;;;;8.25;7.25;;;;;31.59;24.40;101737.41;5054991;28;46180;-69
2022/06/17 11:42:46;;;;;;;;;8.00;8.00;;;;;31.64;24.50;101740.66;5053865;28;45617;-70